createdAt,value
2022-11-16T00:01:01.803Z,11.94
2022-11-16T00:04:04.604Z,11.97
2022-11-16T00:07:07.411Z,11.93
2022-11-16T00:10:11.366Z,11.92
2022-11-16T00:13:15.321Z,11.90
2022-11-16T00:16:19.324Z,11.92
2022-11-16T00:19:22.025Z,11.95
2022-11-16T00:22:24.627Z,11.95
2022-11-16T00:25:27.193Z,11.94
2022-11-16T00:28:31.500Z,11.90
2022-11-16T00:31:34.381Z,11.84
2022-11-16T00:34:36.994Z,11.89
2022-11-16T00:37:39.554Z,11.85
2022-11-16T00:40:42.161Z,11.82
2022-11-16T00:43:46.193Z,11.84
2022-11-16T00:46:48.756Z,11.84
2022-11-16T00:49:51.336Z,11.80
2022-11-16T00:52:54.248Z,11.79
2022-11-16T00:55:56.913Z,11.76
2022-11-16T00:59:00.944Z,11.83
2022-11-16T01:02:03.597Z,11.82
2022-11-16T01:05:07.281Z,11.80
2022-11-16T01:08:09.802Z,11.80
2022-11-16T01:11:31.937Z,11.75
2022-11-16T01:14:36.287Z,11.79
2022-11-16T01:17:39.810Z,11.79
2022-11-16T01:20:42.451Z,11.77
2022-11-16T01:23:45.008Z,11.65
2022-11-16T01:26:47.700Z,11.63
2022-11-16T01:29:51.704Z,11.62
2022-11-16T01:32:54.364Z,11.62
2022-11-16T01:35:57.104Z,11.62
2022-11-16T01:39:00.277Z,11.55
2022-11-16T01:42:02.929Z,11.49
2022-11-16T01:45:18.243Z,11.59
2022-11-16T01:48:23.797Z,11.59
2022-11-16T01:51:26.854Z,11.64
2022-11-16T01:54:30.561Z,11.55
2022-11-16T01:57:36.218Z,11.61
2022-11-16T02:00:40.153Z,11.67
2022-11-16T02:03:43.237Z,11.61
2022-11-16T02:06:58.595Z,11.74
2022-11-16T02:10:10.851Z,11.77
2022-11-16T02:13:26.967Z,11.72
2022-11-16T02:16:39.667Z,11.66
2022-11-16T02:20:02.479Z,11.68
2022-11-16T02:23:23.854Z,11.70
2022-11-16T02:26:38.658Z,11.68
2022-11-16T02:29:43.905Z,11.67
2022-11-16T02:32:49.445Z,11.65
2022-11-16T02:35:53.674Z,11.59
2022-11-16T02:38:59.285Z,11.58
2022-11-16T02:42:03.440Z,11.58
2022-11-16T02:45:11.004Z,11.57
2022-11-16T02:48:17.885Z,11.58
2022-11-16T02:51:20.865Z,11.49
2022-11-16T02:54:25.062Z,11.54
2022-11-16T02:57:38.955Z,11.50
2022-11-16T03:00:43.692Z,11.48
2022-11-16T03:03:50.565Z,11.42
2022-11-16T03:06:55.044Z,11.48
2022-11-16T03:09:57.993Z,11.51
2022-11-16T03:13:01.555Z,11.43
2022-11-16T03:16:06.688Z,11.50
2022-11-16T03:19:12.292Z,11.52
2022-11-16T03:22:17.395Z,11.58
2022-11-16T03:25:21.599Z,11.63
2022-11-16T03:28:27.426Z,11.60
2022-11-16T03:31:36.694Z,11.63
2022-11-16T03:34:40.213Z,11.53
2022-11-16T03:37:42.986Z,11.47
2022-11-16T03:40:46.673Z,11.42
2022-11-16T03:43:49.395Z,11.34
2022-11-16T03:46:53.321Z,11.24
2022-11-16T03:49:55.892Z,11.22
2022-11-16T03:52:58.450Z,11.29
2022-11-16T03:56:01.143Z,11.35
2022-11-16T03:59:03.820Z,11.24
2022-11-16T04:02:07.740Z,11.28
2022-11-16T04:05:28.306Z,11.30
2022-11-16T04:08:48.713Z,11.40
2022-11-16T04:12:09.148Z,11.51
2022-11-16T04:15:29.574Z,11.50
2022-11-16T04:18:51.180Z,11.59
2022-11-16T04:22:13.017Z,11.67
2022-11-16T04:25:17.821Z,11.76
2022-11-16T04:28:22.038Z,11.76
2022-11-16T04:31:50.543Z,11.75
2022-11-16T04:35:12.196Z,11.69
2022-11-16T04:38:14.860Z,11.67
2022-11-16T04:41:31.388Z,11.68
2022-11-16T04:44:49.859Z,11.73
2022-11-16T04:47:53.048Z,11.71
2022-11-16T04:50:57.018Z,11.77
2022-11-16T04:53:59.713Z,11.86
2022-11-16T04:57:02.534Z,11.79
2022-11-16T05:00:06.204Z,11.84
2022-11-16T05:03:08.798Z,11.91
2022-11-16T05:06:12.837Z,12.02
2022-11-16T05:09:15.764Z,11.99
2022-11-16T05:12:22.299Z,11.99
2022-11-16T05:15:25.008Z,11.92
2022-11-16T05:18:27.621Z,11.84
2022-11-16T05:21:30.585Z,11.74
2022-11-16T05:24:36.092Z,11.78
2022-11-16T05:27:39.302Z,11.74
2022-11-16T05:30:41.865Z,11.74
2022-11-16T05:33:44.527Z,11.89
2022-11-16T05:36:48.512Z,11.91
2022-11-16T05:39:51.130Z,11.81
2022-11-16T05:42:53.700Z,11.80
2022-11-16T05:45:56.361Z,11.75
2022-11-16T05:48:58.920Z,11.70
2022-11-16T05:52:02.871Z,11.66
2022-11-16T05:55:06.550Z,11.68
2022-11-16T05:58:09.160Z,11.75
2022-11-16T06:01:11.727Z,11.76
2022-11-16T06:04:14.963Z,11.72
2022-11-16T06:07:19.103Z,11.67
2022-11-16T06:10:21.966Z,11.58
2022-11-16T06:13:24.489Z,11.66
2022-11-16T06:16:27.139Z,11.71
2022-11-16T06:19:32.456Z,11.79
2022-11-16T06:22:36.646Z,11.82
2022-11-16T06:25:40.287Z,11.88
2022-11-16T06:28:42.703Z,11.89
2022-11-16T06:31:45.274Z,11.94
2022-11-16T06:34:47.839Z,11.98
2022-11-16T06:37:51.772Z,12.08
2022-11-16T06:40:55.990Z,12.16
2022-11-16T06:43:58.659Z,12.13
2022-11-16T06:47:02.591Z,12.13
2022-11-16T06:50:05.707Z,12.17
2022-11-16T06:53:09.730Z,12.26
2022-11-16T06:56:14.627Z,12.35
2022-11-16T06:59:18.614Z,12.34
2022-11-16T07:02:22.861Z,12.22
2022-11-16T07:05:25.454Z,12.32
2022-11-16T07:08:30.359Z,12.29
2022-11-16T07:11:33.150Z,12.26
2022-11-16T07:14:35.913Z,12.34
2022-11-16T07:17:38.787Z,12.34
2022-11-16T07:20:41.436Z,12.30
2022-11-16T07:23:45.560Z,12.35
2022-11-16T07:26:48.192Z,12.41
2022-11-16T07:29:50.809Z,12.46
2022-11-16T07:32:58.398Z,12.54
2022-11-16T07:36:04.411Z,12.55
2022-11-16T07:39:10.219Z,12.57
2022-11-16T07:42:12.907Z,12.77
2022-11-16T07:45:15.617Z,13.02
2022-11-16T07:48:18.220Z,13.23
2022-11-16T07:51:21.549Z,13.38
2022-11-16T07:54:25.592Z,13.40
2022-11-16T07:57:28.367Z,13.38
2022-11-16T08:00:30.929Z,13.40
2022-11-16T08:03:33.793Z,13.44
2022-11-16T08:06:36.312Z,13.40
2022-11-16T08:09:40.895Z,13.38
2022-11-16T08:12:43.586Z,13.41
2022-11-16T08:15:46.213Z,13.45
2022-11-16T08:18:49.197Z,13.46
2022-11-16T08:21:51.856Z,13.76
2022-11-16T08:24:55.885Z,13.99
2022-11-16T08:27:58.513Z,14.29
2022-11-16T08:31:01.167Z,14.33
2022-11-16T08:34:04.026Z,14.26
2022-11-16T08:37:06.668Z,14.49
2022-11-16T08:40:12.324Z,14.59
2022-11-16T08:43:14.966Z,14.52
2022-11-16T08:46:17.627Z,14.32
2022-11-16T08:49:20.299Z,14.27
2022-11-16T08:52:22.955Z,14.08
2022-11-16T08:55:27.277Z,13.99
2022-11-16T08:58:29.995Z,14.00
2022-11-16T09:01:33.404Z,13.99
2022-11-16T09:04:37.355Z,13.88
2022-11-16T09:07:40.667Z,13.77
2022-11-16T09:10:44.708Z,13.81
2022-11-16T09:13:48.946Z,13.93
2022-11-16T09:16:52.237Z,14.17
2022-11-16T09:19:54.862Z,14.35
2022-11-16T09:22:57.550Z,14.34
2022-11-16T09:26:03.808Z,14.42
2022-11-16T09:29:06.486Z,14.46
2022-11-16T09:32:09.278Z,14.53
2022-11-16T09:35:11.984Z,14.29
2022-11-16T09:38:21.981Z,13.94
2022-11-16T09:41:43.556Z,14.13
2022-11-16T09:44:59.010Z,14.30
2022-11-16T09:48:04.695Z,14.43
2022-11-16T09:51:08.993Z,14.85
2022-11-16T09:54:16.044Z,15.20
2022-11-16T09:57:23.536Z,15.73
2022-11-16T10:00:26.203Z,15.90
2022-11-16T10:03:30.341Z,15.95
2022-11-16T10:06:41.091Z,16.19
2022-11-16T10:09:44.325Z,16.50
2022-11-16T10:12:51.049Z,16.62
2022-11-16T10:16:01.011Z,17.06
2022-11-16T10:19:08.496Z,17.13
2022-11-16T10:22:22.664Z,17.15
2022-11-16T10:25:27.756Z,17.09
2022-11-16T10:28:47.843Z,16.93
2022-11-16T10:31:58.201Z,16.71
2022-11-16T10:35:03.348Z,16.63
2022-11-16T10:38:12.589Z,17.23
2022-11-16T10:41:20.096Z,17.29
2022-11-16T10:44:30.428Z,16.75
2022-11-16T10:47:38.517Z,16.47
2022-11-16T10:50:45.317Z,16.28
2022-11-16T10:53:48.192Z,16.26
2022-11-16T10:56:55.282Z,16.20
2022-11-16T10:59:59.574Z,16.58
2022-11-16T11:03:02.141Z,16.79
2022-11-16T11:06:05.010Z,17.35
2022-11-16T11:09:17.065Z,17.81
2022-11-16T11:12:39.138Z,17.91
2022-11-16T11:15:44.650Z,18.54
2022-11-16T11:18:47.310Z,18.70
2022-11-16T11:21:50.240Z,18.07
2022-11-16T11:24:53.170Z,17.42
2022-11-16T11:28:06.119Z,17.10
2022-11-16T11:31:13.679Z,16.29
2022-11-16T11:34:19.047Z,16.20
2022-11-16T11:37:23.476Z,16.28
2022-11-16T11:40:27.327Z,16.08
2022-11-16T11:43:30.263Z,16.19
2022-11-16T11:47:18.281Z,16.45
2022-11-16T11:50:05.397Z,16.78
2022-11-16T11:53:11.766Z,16.82
2022-11-16T11:56:15.305Z,16.84
2022-11-16T11:59:20.988Z,17.26
2022-11-16T12:02:39.771Z,17.61
2022-11-16T12:05:51.464Z,17.76
2022-11-16T12:09:03.267Z,17.65
2022-11-16T12:12:18.421Z,17.47
2022-11-16T12:15:44.487Z,18.08
2022-11-16T12:18:58.820Z,17.65
2022-11-16T12:22:09.839Z,17.85
2022-11-16T12:25:21.494Z,18.25
2022-11-16T12:28:41.420Z,18.62
2022-11-16T12:32:03.706Z,19.18
2022-11-16T12:35:22.642Z,19.05
2022-11-16T12:38:44.344Z,18.45
2022-11-16T12:42:02.192Z,18.57
2022-11-16T12:45:17.548Z,18.90
2022-11-16T12:48:30.882Z,19.10
2022-11-16T12:51:45.329Z,25.01
2022-11-16T12:55:27.153Z,27.83
2022-11-16T12:58:42.912Z,31.82
2022-11-16T13:01:55.033Z,31.91
2022-11-16T13:05:04.486Z,31.20
2022-11-16T13:08:13.225Z,31.03
2022-11-16T13:11:20.713Z,32.66
2022-11-16T13:14:27.266Z,35.75
2022-11-16T13:17:33.419Z,32.55
2022-11-16T13:20:41.119Z,35.61
2022-11-16T13:23:53.335Z,36.32
2022-11-16T13:26:59.855Z,35.01
2022-11-16T13:30:06.810Z,34.32
2022-11-16T13:33:21.730Z,30.06
2022-11-16T13:36:47.688Z,29.12
2022-11-16T13:40:11.563Z,30.91
2022-11-16T13:43:20.787Z,27.18
2022-11-16T13:46:54.111Z,21.69
2022-11-16T13:49:50.069Z,18.85
2022-11-16T13:53:51.330Z,17.54
2022-11-16T13:56:24.167Z,17.42
2022-11-16T13:59:31.018Z,17.33
2022-11-16T14:02:35.143Z,17.08
2022-11-16T14:05:40.170Z,16.94
2022-11-16T14:08:51.019Z,17.30
2022-11-16T14:11:55.191Z,18.13
2022-11-16T14:15:12.528Z,23.99
2022-11-16T14:18:38.166Z,23.83
2022-11-16T14:21:48.973Z,20.04
2022-11-16T14:24:55.180Z,18.77
2022-11-16T14:28:07.985Z,17.97
2022-11-16T14:31:17.360Z,16.94
2022-11-16T14:34:22.229Z,16.54
2022-11-16T14:37:36.257Z,16.42
2022-11-16T14:40:44.732Z,16.59
2022-11-16T14:43:51.341Z,16.40
2022-11-16T14:46:54.237Z,16.23
2022-11-16T14:49:57.398Z,15.90
2022-11-16T14:53:03.985Z,15.40
2022-11-16T14:56:11.005Z,14.97
2022-11-16T14:59:18.626Z,14.70
2022-11-16T15:02:23.405Z,14.47
2022-11-16T15:05:29.590Z,14.31
2022-11-16T15:08:34.755Z,13.99
2022-11-16T15:11:57.350Z,13.68
2022-11-16T15:15:06.661Z,13.47
2022-11-16T15:18:14.894Z,13.19
2022-11-16T15:21:22.190Z,12.99
2022-11-16T15:24:32.899Z,12.77
2022-11-16T15:27:37.506Z,12.55
2022-11-16T15:30:41.846Z,12.44
2022-11-16T15:33:45.802Z,12.32
2022-11-16T15:36:49.104Z,12.16
2022-11-16T15:39:52.025Z,12.01
2022-11-16T15:42:54.908Z,11.89
2022-11-16T15:46:00.794Z,11.69
2022-11-16T15:49:03.558Z,11.50
2022-11-16T15:52:06.450Z,11.32
2022-11-16T15:55:21.993Z,11.27
2022-11-16T15:58:27.158Z,11.23
2022-11-16T16:01:31.429Z,11.21
2022-11-16T16:04:34.081Z,11.09
2022-11-16T16:07:37.614Z,10.94
2022-11-16T16:10:40.202Z,10.80
2022-11-16T16:13:44.629Z,10.73
2022-11-16T16:16:50.854Z,10.64
2022-11-16T16:19:57.534Z,10.51
2022-11-16T16:23:09.292Z,10.40
2022-11-16T16:26:11.925Z,10.27
2022-11-16T16:29:14.547Z,10.17
2022-11-16T16:32:24.831Z,10.08
2022-11-16T16:35:27.894Z,9.97
2022-11-16T16:38:30.550Z,9.91
2022-11-16T16:41:33.239Z,9.90
2022-11-16T16:44:35.835Z,9.83
2022-11-16T16:47:40.014Z,9.86
2022-11-16T16:50:42.655Z,9.88
2022-11-16T16:53:45.337Z,9.90
2022-11-16T16:56:48.233Z,9.87
2022-11-16T16:59:50.896Z,9.85
2022-11-16T17:02:55.208Z,9.77
2022-11-16T17:06:00.827Z,9.73
2022-11-16T17:09:03.567Z,9.60
2022-11-16T17:12:06.777Z,9.44
2022-11-16T17:15:13.847Z,9.42
2022-11-16T17:18:21.775Z,9.38
2022-11-16T17:21:24.476Z,9.40
2022-11-16T17:24:27.183Z,9.40
2022-11-16T17:27:29.807Z,9.39
2022-11-16T17:30:32.388Z,9.40
2022-11-16T17:33:37.451Z,9.40
2022-11-16T17:36:40.127Z,9.41
2022-11-16T17:39:42.723Z,9.50
2022-11-16T17:42:45.526Z,9.66
2022-11-16T17:45:48.124Z,9.95
2022-11-16T17:48:52.935Z,10.17
2022-11-16T17:51:55.605Z,10.29
2022-11-16T17:54:58.294Z,10.40
2022-11-16T17:58:00.939Z,10.51
2022-11-16T18:01:03.758Z,10.60
2022-11-16T18:04:07.941Z,10.70
2022-11-16T18:07:10.634Z,10.84
2022-11-16T18:10:18.903Z,10.97
2022-11-16T18:13:22.122Z,11.03
2022-11-16T18:16:26.839Z,11.09
2022-11-16T18:19:30.844Z,11.13
2022-11-16T18:22:33.527Z,11.13
2022-11-16T18:25:36.973Z,11.20
2022-11-16T18:28:39.929Z,11.13
2022-11-16T18:31:43.497Z,11.05
2022-11-16T18:34:47.563Z,10.99
2022-11-16T18:37:50.367Z,10.93
2022-11-16T18:41:04.176Z,10.90
2022-11-16T18:44:07.913Z,10.72
2022-11-16T18:47:10.505Z,10.43
2022-11-16T18:50:21.265Z,10.20
2022-11-16T18:53:27.081Z,9.96
2022-11-16T18:56:30.068Z,9.87
2022-11-16T18:59:32.901Z,9.68
2022-11-16T19:02:35.636Z,9.52
2022-11-16T19:05:39.874Z,9.34
2022-11-16T19:08:46.878Z,9.15
2022-11-16T19:11:53.010Z,9.09
2022-11-16T19:14:55.682Z,8.98
2022-11-16T19:18:19.779Z,8.96
2022-11-16T19:21:23.285Z,8.96
2022-11-16T19:24:25.999Z,8.91
2022-11-16T19:27:28.939Z,8.77
2022-11-16T19:30:32.081Z,8.68
2022-11-16T19:33:38.155Z,8.61
2022-11-16T19:36:42.343Z,8.52
2022-11-16T19:39:45.145Z,8.45
2022-11-16T19:42:47.821Z,8.46
2022-11-16T19:45:50.583Z,8.52
2022-11-16T19:48:53.786Z,8.51
2022-11-16T19:51:59.385Z,8.53
2022-11-16T19:55:02.016Z,8.60
2022-11-16T19:58:05.761Z,8.64
2022-11-16T20:01:08.890Z,8.75
2022-11-16T20:04:13.872Z,8.88
2022-11-16T20:07:18.211Z,8.96
2022-11-16T20:10:20.963Z,8.90
2022-11-16T20:13:23.747Z,8.79
2022-11-16T20:16:27.941Z,8.61
2022-11-16T20:19:30.550Z,8.41
2022-11-16T20:22:34.728Z,8.36
2022-11-16T20:25:41.602Z,8.31
2022-11-16T20:28:44.675Z,8.27
2022-11-16T20:31:47.645Z,8.20
2022-11-16T20:34:50.987Z,8.17
2022-11-16T20:37:54.946Z,8.24
2022-11-16T20:40:57.529Z,8.31
2022-11-16T20:44:01.309Z,8.39
2022-11-16T20:47:04.541Z,8.40
2022-11-16T20:50:07.517Z,8.47
2022-11-16T20:53:11.739Z,8.46
2022-11-16T20:56:15.678Z,8.47
2022-11-16T20:59:18.463Z,8.46
2022-11-16T21:02:21.115Z,8.42
2022-11-16T21:05:23.875Z,8.39
2022-11-16T21:08:29.591Z,8.29
2022-11-16T21:11:53.751Z,8.25
2022-11-16T21:14:55.219Z,8.21
2022-11-16T21:17:57.945Z,8.16
2022-11-16T21:21:04.156Z,8.11
2022-11-16T21:24:08.972Z,8.12
2022-11-16T21:27:11.607Z,8.18
2022-11-16T21:30:15.219Z,8.31
2022-11-16T21:33:17.848Z,8.34
2022-11-16T21:36:21.980Z,8.36
2022-11-16T21:39:26.059Z,8.34
2022-11-16T21:42:28.941Z,8.34
2022-11-16T21:45:31.571Z,8.33
2022-11-16T21:48:34.792Z,8.37
2022-11-16T21:51:37.424Z,8.40
2022-11-16T21:54:55.967Z,8.40
2022-11-16T21:57:59.011Z,8.45
2022-11-16T22:01:04.562Z,8.50
2022-11-16T22:04:25.102Z,8.56
2022-11-16T22:07:33.858Z,8.60
2022-11-16T22:10:38.132Z,8.69
2022-11-16T22:13:41.016Z,8.77
2022-11-16T22:16:43.673Z,8.87
2022-11-16T22:19:46.263Z,8.96
2022-11-16T22:22:49.176Z,9.06
2022-11-16T22:25:53.439Z,9.13
2022-11-16T22:28:56.687Z,9.19
2022-11-16T22:31:59.314Z,9.28
2022-11-16T22:35:01.917Z,9.32
2022-11-16T22:38:04.858Z,9.30
2022-11-16T22:41:08.663Z,9.32
2022-11-16T22:44:11.516Z,9.33
2022-11-16T22:47:14.169Z,9.33
2022-11-16T22:50:16.824Z,9.37
2022-11-16T22:53:19.454Z,9.42
2022-11-16T22:56:23.861Z,9.42
2022-11-16T22:59:26.463Z,9.43
2022-11-16T23:02:29.162Z,9.48
2022-11-16T23:05:31.826Z,9.52
2022-11-16T23:08:35.168Z,9.55
2022-11-16T23:11:56.668Z,9.53
2022-11-16T23:15:16.966Z,9.52
2022-11-16T23:18:20.591Z,9.49
2022-11-16T23:21:40.534Z,9.53
2022-11-16T23:25:01.098Z,9.57
2022-11-16T23:28:07.204Z,9.61
2022-11-16T23:31:09.866Z,9.65
2022-11-16T23:34:12.611Z,9.64
2022-11-16T23:37:15.242Z,9.66
2022-11-16T23:40:18.303Z,9.65
2022-11-16T23:43:36.452Z,9.71
2022-11-16T23:46:39.202Z,9.73
2022-11-16T23:49:41.895Z,9.76
2022-11-16T23:52:44.498Z,9.73
2022-11-16T23:55:47.618Z,9.76
2022-11-16T23:58:51.666Z,9.80
